Time;durP1;ratioP1;P1;durP2;ratioP2;P2;SDS_P1;SDS_P2;PMS_P1;PMS_P2;Temp;Humidity;BMP_temperature;BMP_pressure;BME280_temperature;BME280_humidity;BME280_pressure;Samples;Min_cycle;Max_cycle;Signal;HPM_P1;HPM_P2
2023/04/22 00:01:42;;;;;;;8.27;4.20;;;;;;;11.40;59.83;99547.72;4486943;31;20135;-87
2023/04/22 00:04:08;;;;;;;7.12;3.83;;;;;;;11.55;59.83;99553.16;4485306;31;20821;-87
2023/04/22 00:06:34;;;;;;;10.82;4.25;;;;;;;11.72;59.84;99542.06;4472394;32;20122;-87
2023/04/22 00:08:59;;;;;;;7.72;4.28;;;;;;;11.38;59.82;99546.00;4472460;32;20081;-87
2023/04/22 00:11:25;;;;;;;5.87;4.20;;;;;;;11.51;59.83;99548.97;4472318;32;20131;-87
2023/04/22 00:13:50;;;;;;;7.22;4.62;;;;;;;11.45;59.83;99545.78;4472291;32;20130;-86
2023/04/22 00:16:16;;;;;;;7.30;4.20;;;;;;;11.39;59.83;99541.66;4486554;31;20115;-87
2023/04/22 00:18:41;;;;;;;12.43;4.65;;;;;;;11.46;59.83;99548.31;4484756;32;34900;-88
2023/04/22 00:21:07;;;;;;;6.37;3.62;;;;;;;11.51;59.83;99543.75;4472576;32;20104;-86
2023/04/22 00:23:32;;;;;;;7.95;3.95;;;;;;;11.61;59.84;99534.69;4472452;32;20118;-87
2023/04/22 00:25:58;;;;;;;8.23;4.10;;;;;;;11.76;59.85;99540.19;4472111;32;24786;-87
2023/04/22 00:28:23;;;;;;;7.32;4.22;;;;;;;11.53;59.84;99541.94;4472307;32;20483;-87
2023/04/22 00:30:49;;;;;;;6.80;4.40;;;;;;;11.61;59.84;99544.28;4459162;32;20144;-87
2023/04/22 00:33:14;;;;;;;11.15;4.97;;;;;;;11.74;59.84;99545.47;4458897;32;21723;-87
2023/04/22 00:35:39;;;;;;;8.25;4.78;;;;;;;11.58;59.83;99546.97;4458737;32;22715;-87
2023/04/22 00:38:05;;;;;;;9.18;4.30;;;;;;;11.46;59.83;99547.47;4472382;32;20400;-87
2023/04/22 00:40:30;;;;;;;8.18;4.03;;;;;;;11.56;59.83;99549.63;4484806;32;22637;-87
2023/04/22 00:42:56;;;;;;;7.15;3.42;;;;;;;11.58;59.83;99540.00;4459289;32;20144;-87
2023/04/22 00:45:21;;;;;;;10.77;4.55;;;;;;;11.68;59.84;99536.13;4458961;32;20140;-87
2023/04/22 00:47:47;;;;;;;8.77;4.57;;;;;;;11.64;59.83;99539.78;4486638;31;20072;-87
2023/04/22 00:50:13;;;;;;;6.12;4.45;;;;;;;11.61;59.84;99536.44;4485420;32;20136;-87
2023/04/22 00:52:39;;;;;;;8.00;4.35;;;;;;;11.85;59.85;99538.09;4485589;32;20099;-87
2023/04/22 00:55:05;;;;;;;9.13;4.55;;;;;;;11.79;59.84;99534.88;4472352;32;20461;-88
2023/04/22 00:57:30;;;;;;;10.30;4.12;;;;;;;11.72;59.84;99533.41;4472537;32;20129;-88
2023/04/22 00:59:56;;;;;;;5.18;3.42;;;;;;;11.81;59.84;99531.28;4485469;32;20457;-87
2023/04/22 01:02:21;;;;;;;8.45;4.78;;;;;;;11.69;59.84;99536.97;4472332;32;20088;-88
2023/04/22 01:04:47;;;;;;;6.72;4.10;;;;;;;11.78;59.84;99541.84;4459221;32;20110;-88
2023/04/22 01:07:12;;;;;;;8.15;4.57;;;;;;;11.69;59.84;99540.44;4471799;32;20464;-88
2023/04/22 01:09:38;;;;;;;5.93;3.90;;;;;;;11.66;59.83;99543.16;4484761;32;20148;-87
2023/04/22 01:12:04;;;;;;;7.30;4.62;;;;;;;11.84;59.85;99540.78;4472124;32;20175;-87
2023/04/22 01:14:30;;;;;;;7.18;4.07;;;;;;;11.78;59.84;99540.97;4485126;32;20092;-88
2023/04/22 01:16:56;;;;;;;7.85;4.28;;;;;;;11.75;59.84;99541.94;4471645;32;20433;-87
2023/04/22 01:19:22;;;;;;;7.80;4.07;;;;;;;11.73;59.84;99543.78;4485146;32;20131;-87
2023/04/22 01:21:49;;;;;;;9.00;4.37;;;;;;;11.73;59.84;99546.38;4486442;31;20104;-86
2023/04/22 01:24:14;;;;;;;10.32;5.05;;;;;;;11.78;59.84;99552.28;4459163;32;20093;-87
2023/04/22 01:26:40;;;;;;;6.20;3.83;;;;;;;11.66;59.83;99548.38;4471853;32;20167;-87
2023/04/22 01:29:05;;;;;;;7.40;4.40;;;;;;;11.69;59.84;99552.63;4484702;32;20488;-87
2023/04/22 01:31:31;;;;;;;8.68;4.60;;;;;;;11.55;59.83;99550.56;4472036;32;20100;-87
2023/04/22 01:33:56;;;;;;;9.27;4.80;;;;;;;11.69;59.84;99552.63;4471854;32;20422;-87
2023/04/22 01:36:22;;;;;;;8.25;4.62;;;;;;;11.66;59.83;99552.75;4486370;31;20132;-87
2023/04/22 01:38:47;;;;;;;9.45;4.55;;;;;;;11.78;59.84;99554.00;4471892;32;20130;-87
2023/04/22 01:41:13;;;;;;;7.18;4.55;;;;;;;11.64;59.83;99557.19;4458844;32;20378;-87
2023/04/22 01:43:39;;;;;;;10.45;4.50;;;;;;;11.56;59.83;99557.47;4484995;32;20088;-88
2023/04/22 01:46:05;;;;;;;8.95;4.60;;;;;;;11.47;59.83;99552.63;4458877;32;20115;-88
2023/04/22 01:48:30;;;;;;;9.32;4.85;;;;;;;11.44;59.83;99550.13;4471826;32;20504;-88
2023/04/22 01:50:55;;;;;;;6.78;4.72;;;;;;;11.29;59.81;99556.78;4485629;31;22045;-88
2023/04/22 01:53:21;;;;;;;12.35;5.12;;;;;;;11.23;59.82;99559.63;4484650;32;20089;-87
2023/04/22 01:55:46;;;;;;;7.07;4.68;;;;;;;11.27;59.82;99549.91;4484994;32;20140;-88
2023/04/22 01:58:12;;;;;;;9.57;5.22;;;;;;;11.28;59.81;99556.84;4458625;32;20428;-86
2023/04/22 02:00:37;;;;;;;12.95;5.12;;;;;;;11.12;59.80;99559.19;4484312;32;23360;-88
2023/04/22 02:03:02;;;;;;;10.32;5.32;;;;;;;11.24;59.81;99550.87;4484671;32;20088;-87
2023/04/22 02:05:28;;;;;;;8.13;4.85;;;;;;;11.18;59.81;99545.91;4471394;32;20103;-87
2023/04/22 02:07:53;;;;;;;11.10;4.60;;;;;;;11.31;59.82;99546.28;4484300;32;23248;-88
2023/04/22 02:10:19;;;;;;;10.70;5.18;;;;;;;11.37;59.81;99551.28;4471320;32;20160;-88
2023/04/22 02:12:45;;;;;;;8.52;4.85;;;;;;;11.38;59.82;99547.78;4484646;32;20092;-89
2023/04/22 02:15:10;;;;;;;8.45;4.78;;;;;;;11.24;59.82;99544.81;4458399;32;20153;-88
2023/04/22 02:17:36;;;;;;;7.62;4.90;;;;;;;11.23;59.81;99549.19;4484596;32;20122;-89
2023/04/22 02:20:03;;;;;;;14.23;5.15;;;;;;;11.26;59.81;99553.44;4458817;32;20092;-89
2023/04/22 02:22:28;;;;;;;10.18;4.80;;;;;;;11.12;59.80;99553.09;4471614;32;20502;-89
2023/04/22 02:24:54;;;;;;;8.15;4.65;;;;;;;11.21;59.81;99547.56;4471325;32;20088;-88
2023/04/22 02:27:20;;;;;;;7.07;4.90;;;;;;;11.19;59.81;99545.00;4470372;32;20104;-88
2023/04/22 02:29:46;;;;;;;13.45;5.12;;;;;;;11.04;59.80;99553.38;4484457;32;20147;-86
2023/04/22 02:32:11;;;;;;;9.38;5.22;;;;;;;11.06;59.80;99549.81;4458352;32;20089;-87
2023/04/22 02:34:37;;;;;;;10.75;4.75;;;;;;;11.05;59.80;99544.66;4484484;32;20125;-87
2023/04/22 02:37:02;;;;;;;7.05;4.22;;;;;;;11.14;59.80;99548.69;4484602;32;20108;-87
2023/04/22 02:39:28;;;;;;;11.48;4.65;;;;;;;11.22;59.82;99544.88;4484724;32;20148;-88
2023/04/22 02:41:53;;;;;;;6.90;4.57;;;;;;;11.28;59.82;99551.63;4484165;32;20088;-87
2023/04/22 02:44:19;;;;;;;8.23;4.50;;;;;;;11.21;59.81;99545.81;4484578;32;20141;-88
2023/04/22 02:46:44;;;;;;;6.43;4.03;;;;;;;11.33;59.82;99540.09;4484630;32;20093;-89
2023/04/22 02:49:10;;;;;;;11.55;4.45;;;;;;;11.28;59.81;99541.19;4484767;32;20099;-88
2023/04/22 02:51:37;;;;;;;7.05;4.35;;;;;;;11.33;59.82;99545.31;4471337;32;20144;-88
2023/04/22 02:54:02;;;;;;;9.65;4.87;;;;;;;11.22;59.82;99544.03;4487140;32;20065;-88
2023/04/22 02:56:27;;;;;;;7.12;4.40;;;;;;;11.29;59.81;99543.75;4471142;32;20157;-88
2023/04/22 02:58:53;;;;;;;8.52;4.60;;;;;;;11.22;59.82;99537.06;4485658;31;20404;-87
2023/04/22 03:01:18;;;;;;;7.85;4.18;;;;;;;11.11;59.80;99539.22;4470753;32;20093;-88
2023/04/22 03:03:44;;;;;;;8.27;4.72;;;;;;;11.11;59.80;99539.22;4484164;32;20123;-88
2023/04/22 03:06:09;;;;;;;10.32;4.57;;;;;;;11.05;59.80;99544.66;4470807;32;20457;-88
2023/04/22 03:08:35;;;;;;;11.45;4.93;;;;;;;10.99;59.79;99550.09;4457942;32;20096;-88
2023/04/22 03:11:00;;;;;;;7.32;4.12;;;;;;;10.89;59.79;99548.75;4470420;32;25730;-88
2023/04/22 03:13:26;;;;;;;6.18;4.32;;;;;;;10.95;59.80;99551.13;4484185;32;20157;-87
2023/04/22 03:15:52;;;;;;;7.22;4.35;;;;;;;10.98;59.79;99551.00;4485383;32;20096;-88
2023/04/22 03:18:17;;;;;;;7.80;4.43;;;;;;;11.00;59.80;99539.62;4487458;32;20119;-87
2023/04/22 03:20:42;;;;;;;7.40;3.92;;;;;;;11.01;59.80;99550.91;4474858;32;21770;-87
2023/04/22 03:23:08;;;;;;;14.25;4.50;;;;;;;10.92;59.79;99548.66;4483176;32;20103;-88
2023/04/22 03:25:35;;;;;;;8.75;4.32;;;;;;;11.03;59.80;99549.94;4499979;32;20103;-88
2023/04/22 03:28:01;;;;;;;9.82;5.22;;;;;;;10.98;59.79;99556.22;4497990;32;20090;-87
2023/04/22 03:30:27;;;;;;;9.38;4.80;;;;;;;11.02;59.80;99550.00;4491676;32;20120;-86
2023/04/22 03:32:52;;;;;;;6.68;4.00;;;;;;;11.24;59.81;99556.09;4457819;32;20127;-86
2023/04/22 03:35:19;;;;;;;8.10;5.18;;;;;;;11.04;59.80;99556.84;4483855;32;20486;-86
2023/04/22 03:37:44;;;;;;;10.63;5.25;;;;;;;11.00;59.80;99560.47;4485191;31;20087;-88
2023/04/22 03:40:10;;;;;;;8.60;4.40;;;;;;;10.96;59.79;99558.87;4472411;32;25101;-87
2023/04/22 03:42:36;;;;;;;6.32;4.60;;;;;;;10.91;59.78;99563.41;4473518;32;20097;-88
2023/04/22 03:45:02;;;;;;;9.13;5.25;;;;;;;10.96;59.80;99563.25;4486145;32;20135;-88
2023/04/22 03:47:27;;;;;;;9.25;4.72;;;;;;;11.00;59.80;99565.69;4487458;31;20092;-88
2023/04/22 03:49:53;;;;;;;9.52;4.65;;;;;;;10.72;59.78;99552.81;4486105;32;20112;-87
2023/04/22 03:52:18;;;;;;;9.77;4.35;;;;;;;10.80;59.79;99562.94;4474644;32;27852;-88
2023/04/22 03:54:44;;;;;;;7.95;4.72;;;;;;;10.74;59.78;99569.22;4486863;31;20779;-89
2023/04/22 03:57:09;;;;;;;10.05;5.18;;;;;;;10.60;59.77;99560.19;4485743;32;20118;-88
2023/04/22 03:59:34;;;;;;;8.30;4.70;;;;;;;10.45;59.76;99574.59;4486099;32;20433;-88
2023/04/22 04:02:00;;;;;;;8.13;4.85;;;;;;;10.53;59.76;99567.37;4485468;32;20104;-87
2023/04/22 04:04:27;;;;;;;7.45;4.05;;;;;;;10.58;59.77;99567.19;4485754;32;20164;-86
2023/04/22 04:06:53;;;;;;;9.65;5.00;;;;;;;10.81;59.79;99566.41;4485817;32;20153;-87
2023/04/22 04:09:20;;;;;;;8.60;4.90;;;;;;;10.79;59.78;99565.59;4486111;32;20080;-87
2023/04/22 04:11:45;;;;;;;11.05;4.22;;;;;;;10.67;59.78;99566.91;4489132;31;20053;-88
2023/04/22 04:14:11;;;;;;;7.18;4.22;;;;;;;10.68;59.78;99571.19;4487103;31;20161;-87
2023/04/22 04:16:36;;;;;;;12.57;4.72;;;;;;;10.70;59.78;99566.78;4487222;31;20127;-87
2023/04/22 04:19:02;;;;;;;5.97;4.03;;;;;;;10.90;59.79;99571.28;4485953;32;20115;-87
2023/04/22 04:21:28;;;;;;;9.95;5.12;;;;;;;10.86;59.79;99574.87;4485866;32;20396;-88
2023/04/22 04:23:53;;;;;;;8.07;4.55;;;;;;;10.88;59.79;99571.31;4485834;32;20103;-89
2023/04/22 04:26:19;;;;;;;7.65;4.60;;;;;;;10.80;59.79;99570.75;4459524;32;20157;-87
2023/04/22 04:28:46;;;;;;;7.35;3.95;;;;;;;10.91;59.79;99575.59;4485819;32;20057;-88
2023/04/22 04:31:12;;;;;;;7.55;4.50;;;;;;;10.94;59.79;99576.31;4472637;32;20115;-88
2023/04/22 04:33:38;;;;;;;8.88;4.85;;;;;;;11.07;59.81;99584.53;4473021;32;20165;-87
2023/04/22 04:36:03;;;;;;;10.23;4.82;;;;;;;11.15;59.81;99582.50;4485781;32;20104;-87
2023/04/22 04:38:29;;;;;;;7.37;4.65;;;;;;;11.14;59.81;99586.03;4460589;32;20115;-86
2023/04/22 04:40:55;;;;;;;7.75;4.18;;;;;;;11.22;59.82;99583.97;4474545;32;20114;-86
2023/04/22 04:43:24;;;;;;;8.38;4.30;;;;;;;11.13;59.80;99591.28;4488601;32;20136;-86
2023/04/22 04:45:50;;;;;;;9.88;4.57;;;;;;;11.17;59.81;99587.66;4477232;32;20104;-87
2023/04/22 04:48:15;;;;;;;13.82;4.75;;;;;;;11.25;59.81;99598.63;4494080;32;20092;-86
2023/04/22 04:50:41;;;;;;;6.90;4.20;;;;;;;11.49;59.82;99583.84;4484585;32;20388;-86
2023/04/22 04:53:07;;;;;;;8.05;4.62;;;;;;;11.59;59.83;99591.25;4459443;32;20433;-86
2023/04/22 04:55:32;;;;;;;6.25;4.05;;;;;;;11.79;59.84;99594.84;4487036;31;20118;-86
2023/04/22 04:57:57;;;;;;;10.32;4.68;;;;;;;11.91;59.85;99590.00;4472157;32;27105;-87
2023/04/22 05:00:23;;;;;;;16.67;4.87;;;;;;;11.98;59.85;99586.25;4471291;32;35893;-86
2023/04/22 05:02:48;;;;;;;12.63;4.03;;;;;;;12.04;59.85;99594.72;4486534;31;20164;-88
2023/04/22 05:05:14;;;;;;;8.20;4.28;;;;;;;12.03;59.85;99595.63;4485293;32;20152;-86
2023/04/22 05:07:39;;;;;;;8.38;4.65;;;;;;;12.29;59.87;99595.41;4485302;32;20091;-84
2023/04/22 05:10:05;;;;;;;9.98;4.15;;;;;;;12.20;59.85;99601.03;4487559;32;20170;-86
2023/04/22 05:12:31;;;;;;;9.80;4.90;;;;;;;12.36;59.87;99596.03;4486638;32;20151;-86
2023/04/22 05:14:56;;;;;;;6.87;4.60;;;;;;;12.65;59.88;99594.78;4485093;32;20358;-86
2023/04/22 05:17:21;;;;;;;7.35;4.25;;;;;;;12.74;59.90;99592.62;4485131;32;20096;-85
2023/04/22 05:19:47;;;;;;;7.72;4.18;;;;;;;12.80;59.89;99591.53;4486450;31;20076;-86
2023/04/22 05:22:12;;;;;;;6.05;4.12;;;;;;;12.86;59.90;99594.72;4485303;32;20092;-87
2023/04/22 05:24:38;;;;;;;6.25;3.72;;;;;;;12.97;59.91;99593.38;4486439;31;20156;-87
2023/04/22 05:27:03;;;;;;;10.90;4.78;;;;;;;13.08;59.90;99597.22;4485216;32;20111;-86
2023/04/22 05:29:28;;;;;;;9.68;4.72;;;;;;;13.16;59.91;99589.87;4487173;31;20607;-86
2023/04/22 05:31:54;;;;;;;10.82;4.50;;;;;;;13.51;59.94;99583.09;4485340;32;20093;-87
2023/04/22 05:34:19;;;;;;;5.55;4.10;;;;;;;13.60;59.94;99587.03;4484888;32;23099;-86
2023/04/22 05:36:45;;;;;;;9.68;4.30;;;;;;;13.88;59.96;99583.09;4472269;32;20075;-87
2023/04/22 05:39:11;;;;;;;8.48;4.57;;;;;;;14.11;59.97;99580.22;4485262;32;20142;-87
2023/04/22 05:41:37;;;;;;;8.02;3.72;;;;;;;14.28;59.98;99585.47;4485289;32;20092;-87
2023/04/22 05:44:02;;;;;;;7.80;3.92;;;;;;;14.62;59.99;99586.41;4472386;32;20101;-86
2023/04/22 05:46:28;;;;;;;5.85;3.60;;;;;;;14.81;60.00;99581.94;4486424;31;20076;-87
2023/04/22 05:48:54;;;;;;;8.35;3.90;;;;;;;15.10;60.03;99588.25;4485275;32;20140;-86
2023/04/22 05:51:22;;;;;;;6.40;4.05;;;;;;;15.19;60.03;99582.53;4472633;32;20217;-87
2023/04/22 05:53:48;;;;;;;8.93;4.22;;;;;;;15.44;60.04;99582.06;4486780;31;20114;-87
2023/04/22 05:56:13;;;;;;;8.38;4.18;;;;;;;15.51;60.04;99590.44;4486613;31;20182;-86
2023/04/22 05:58:39;;;;;;;7.65;3.87;;;;;;;15.68;60.05;99593.00;4485677;32;20157;-87
2023/04/22 06:01:04;;;;;;;5.03;3.55;;;;;;;15.98;60.06;99586.97;4486911;31;20110;-87
2023/04/22 06:03:30;;;;;;;5.40;3.87;;;;;;;16.21;60.08;99579.47;4470748;32;28126;-87
2023/04/22 06:05:56;;;;;;;6.65;4.28;;;;;;;16.43;60.09;99588.72;4487296;32;20135;-88
2023/04/22 06:08:21;;;;;;;11.90;3.90;;;;;;;16.70;60.11;99576.63;4472256;32;20092;-88
2023/04/22 06:10:46;;;;;;;8.88;4.90;;;;;;;17.02;60.13;99576.44;4485018;32;20100;-85
2023/04/22 06:13:12;;;;;;;12.80;4.45;;;;;;;17.15;60.13;99580.03;4485969;31;20076;-86
2023/04/22 06:15:37;;;;;;;7.60;4.50;;;;;;;17.34;60.14;99583.22;4486237;31;20437;-86
2023/04/22 06:18:03;;;;;;;15.45;4.80;;;;;;;17.49;60.15;99584.88;4485176;32;20129;-86
2023/04/22 06:20:31;;;;;;;10.35;5.12;;;;;;;17.72;60.16;99580.81;4486173;31;20104;-86
2023/04/22 06:22:57;;;;;;;9.05;4.62;;;;;;;17.78;60.17;99587.50;4486966;31;20235;-86
2023/04/22 06:25:22;;;;;;;7.35;4.72;;;;;;;18.00;60.18;99579.88;4486852;31;20089;-84
2023/04/22 06:27:48;;;;;;;11.23;4.57;;;;;;;17.90;60.17;99586.69;4486782;32;20133;-87
2023/04/22 06:30:13;;;;;;;7.70;4.20;;;;;;;18.12;60.18;99590.56;4472081;32;20464;-87
2023/04/22 06:32:39;;;;;;;8.27;4.10;;;;;;;18.39;60.20;99588.72;4486432;31;20353;-86
2023/04/22 06:35:07;;;;;;;9.25;4.53;;;;;;;18.40;60.20;99590.41;4486026;31;20173;-87
2023/04/22 06:37:32;;;;;;;10.38;4.03;;;;;;;18.54;60.21;99585.06;4486041;31;20101;-86
2023/04/22 06:39:58;;;;;;;5.72;4.05;;;;;;;18.63;60.21;99586.28;4484452;32;20097;-87
2023/04/22 06:42:23;;;;;;;7.60;4.40;;;;;;;18.81;60.22;99586.81;4484295;32;20156;-86
2023/04/22 06:44:49;;;;;;;9.25;4.00;;;;;;;18.89;60.22;99576.56;4485305;31;20460;-86
2023/04/22 06:47:14;;;;;;;8.73;4.82;;;;;;;18.89;60.23;99585.31;4485142;32;20099;-85
2023/04/22 06:49:40;;;;;;;8.05;4.05;;;;;;;19.04;60.23;99587.88;4484379;31;20398;-84
2023/04/22 06:52:05;;;;;;;7.57;4.03;;;;;;;19.21;60.24;99587.53;4484624;31;20156;-86
2023/04/22 06:54:31;;;;;;;6.87;3.60;;;;;;;19.47;60.26;99585.69;4469403;32;20506;-86
2023/04/22 06:56:56;;;;;;;8.07;3.50;;;;;;;19.59;60.26;99592.75;4483096;32;20096;-86
2023/04/22 06:59:22;;;;;;;6.25;3.60;;;;;;;19.75;60.27;99584.59;4484399;31;20085;-86
2023/04/22 07:01:47;;;;;;;7.12;3.42;;;;;;;19.98;60.28;99580.28;4484191;32;20141;-86
2023/04/22 07:04:13;;;;;;;7.60;3.87;;;;;;;19.99;60.28;99581.97;4485576;31;20731;-85
2023/04/22 07:06:39;;;;;;;15.55;3.37;;;;;;;19.88;60.28;99591.53;4486275;31;20337;-86
2023/04/22 07:09:04;;;;;;;7.32;3.20;;;;;;;19.96;60.28;99587.47;4488892;31;20058;-86
2023/04/22 07:11:30;;;;;;;9.90;3.47;;;;;;;20.05;60.29;99585.00;4493287;31;20065;-85
2023/04/22 07:13:56;;;;;;;6.85;3.12;;;;;;;20.07;60.28;99590.16;4498560;31;20131;-86
2023/04/22 07:16:21;;;;;;;7.22;3.53;;;;;;;20.18;60.30;99587.59;4489679;31;20160;-86
2023/04/22 07:18:47;;;;;;;9.90;3.55;;;;;;;20.21;60.29;99588.19;4485923;32;20097;-86
2023/04/22 07:21:12;;;;;;;7.00;3.12;;;;;;;20.39;60.31;99587.78;4474036;32;20100;-85
2023/04/22 07:23:39;;;;;;;7.65;3.60;;;;;;;20.27;60.30;99581.59;4489439;32;20084;-84
2023/04/22 07:26:05;;;;;;;9.07;3.22;;;;;;;20.51;60.31;99587.72;4489730;32;20076;-86
2023/04/22 07:28:30;;;;;;;9.88;3.35;;;;;;;20.45;60.31;99588.19;4488260;32;20125;-85
2023/04/22 07:30:55;;;;;;;4.35;3.22;;;;;;;20.54;60.32;99582.19;4488350;32;20108;-85
2023/04/22 07:33:22;;;;;;;5.45;3.30;;;;;;;20.64;60.32;99581.50;4488212;32;20160;-86
2023/04/22 07:35:47;;;;;;;5.57;3.20;;;;;;;20.72;60.33;99579.13;4488252;32;20456;-84
2023/04/22 07:38:12;;;;;;;5.60;3.12;;;;;;;20.96;60.34;99573.75;4486546;32;20144;-85
2023/04/22 07:40:38;;;;;;;6.22;3.40;;;;;;;20.86;60.34;99578.91;4486369;32;20144;-84
2023/04/22 07:43:04;;;;;;;6.15;3.30;;;;;;;21.05;60.34;99583.59;4488114;31;31031;-85
2023/04/22 07:45:30;;;;;;;8.15;4.03;;;;;;;21.11;60.35;99583.97;4486144;32;20441;-85
2023/04/22 07:47:55;;;;;;;6.20;3.65;;;;;;;21.16;60.34;99580.97;4485922;32;20093;-85
2023/04/22 07:50:21;;;;;;;8.07;3.72;;;;;;;21.02;60.34;99578.53;4486170;32;20150;-84
2023/04/22 07:52:46;;;;;;;9.05;3.30;;;;;;;21.17;60.35;99581.81;4486915;31;20130;-84
2023/04/22 07:55:12;;;;;;;5.72;3.78;;;;;;;21.32;60.36;99583.28;4486964;31;30380;-85
2023/04/22 07:57:38;;;;;;;7.07;3.70;;;;;;;21.45;60.36;99579.53;4485551;32;21481;-84
2023/04/22 08:00:08;;;;;;;7.07;3.83;;;;;;;21.46;60.37;99577.72;4472948;32;20184;-86
2023/04/22 08:02:33;;;;;;;5.93;3.62;;;;;;;21.44;60.37;99582.31;4487635;31;20145;-85
2023/04/22 08:04:58;;;;;;;6.78;3.17;;;;;;;21.50;60.37;99576.50;4485888;32;20140;-84
2023/04/22 08:07:24;;;;;;;6.95;3.33;;;;;;;21.45;60.37;99579.53;4486440;31;30906;-85
2023/04/22 08:09:50;;;;;;;7.62;4.45;;;;;;;21.80;60.39;99580.34;4486010;32;20449;-85
2023/04/22 08:12:15;;;;;;;7.93;4.30;;;;;;;21.93;60.39;99568.59;4473035;32;20084;-85
2023/04/22 08:14:40;;;;;;;5.87;3.40;;;;;;;21.81;60.39;99579.38;4487240;31;20108;-84
2023/04/22 08:17:06;;;;;;;7.87;3.90;;;;;;;21.86;60.39;99577.19;4487397;31;20116;-84
2023/04/22 08:19:31;;;;;;;6.12;3.55;;;;;;;21.85;60.39;99583.44;4486096;32;20381;-84
2023/04/22 08:21:57;;;;;;;3.65;2.85;;;;;;;21.84;60.39;99579.13;4486480;32;20426;-84
2023/04/22 08:24:22;;;;;;;7.75;4.15;;;;;;;21.86;60.39;99587.78;4472180;32;20123;-85
2023/04/22 08:26:47;;;;;;;6.70;3.78;;;;;;;21.73;60.38;99580.81;4471619;32;34786;-85
2023/04/22 08:29:13;;;;;;;8.43;4.53;;;;;;;22.00;60.39;99583.03;4485414;32;21288;-85
2023/04/22 08:31:38;;;;;;;6.70;3.83;;;;;;;22.05;60.40;99578.25;4485460;32;20111;-85
2023/04/22 08:34:04;;;;;;;5.75;4.18;;;;;;;22.28;60.41;99586.09;4487130;31;20183;-85
2023/04/22 08:36:30;;;;;;;5.80;3.45;;;;;;;22.48;60.42;99587.09;4487140;31;20097;-85
2023/04/22 08:38:56;;;;;;;6.25;3.70;;;;;;;22.42;60.43;99577.81;4485520;32;20096;-85
2023/04/22 08:41:23;;;;;;;7.80;3.90;;;;;;;22.48;60.42;99587.09;4487495;31;20099;-84
2023/04/22 08:43:49;;;;;;;13.77;3.83;;;;;;;22.53;60.43;99588.38;4460548;32;20503;-84
2023/04/22 08:46:14;;;;;;;5.82;3.83;;;;;;;22.46;60.42;99583.69;4485519;32;20097;-85
2023/04/22 08:48:40;;;;;;;5.85;4.15;;;;;;;22.47;60.42;99588.03;4485730;32;20147;-84
2023/04/22 08:51:05;;;;;;;5.50;3.90;;;;;;;22.85;60.44;99587.50;4485685;32;20434;-85
2023/04/22 08:53:31;;;;;;;8.35;4.20;;;;;;;22.81;60.44;99583.41;4472200;32;27016;-84
2023/04/22 08:55:56;;;;;;;5.70;3.62;;;;;;;22.96;60.45;99579.47;4485286;32;26237;-85
2023/04/22 08:58:24;;;;;;;4.93;3.70;;;;;;;23.09;60.45;99579.25;4485598;32;20136;-85
2023/04/22 09:00:49;;;;;;;7.35;3.55;;;;;;;23.18;60.47;99576.59;4472661;32;20092;-84
2023/04/22 09:03:15;;;;;;;7.10;3.90;;;;;;;23.39;60.47;99576.56;4488172;32;20425;-85
2023/04/22 09:05:40;;;;;;;6.90;4.05;;;;;;;23.55;60.48;99578.72;4488158;32;20096;-84
2023/04/22 09:08:06;;;;;;;9.60;4.18;;;;;;;23.54;60.48;99575.22;4489303;31;20186;-84
2023/04/22 09:10:32;;;;;;;6.43;4.05;;;;;;;23.57;60.49;99572.31;4487798;31;20092;-85
2023/04/22 09:12:57;;;;;;;7.70;3.85;;;;;;;23.41;60.47;99581.72;4488123;31;20110;-84
2023/04/22 09:15:24;;;;;;;7.18;3.67;;;;;;;23.51;60.48;99578.16;4472422;32;20370;-84
2023/04/22 09:17:52;;;;;;;5.25;3.70;;;;;;;23.67;60.49;99576.84;4485628;32;20221;-84
2023/04/22 09:20:18;;;;;;;7.00;3.83;;;;;;;23.84;60.49;99576.13;4485392;32;20100;-85
2023/04/22 09:22:47;;;;;;;8.15;3.83;;;;;;;24.05;60.51;99568.88;4485844;32;20181;-84
2023/04/22 09:25:17;;;;;;;4.40;3.20;;;;;;;24.19;60.52;99576.47;4487190;31;20432;-84
2023/04/22 09:27:42;;;;;;;8.10;3.80;;;;;;;24.36;60.53;99566.94;4472414;32;20241;-84
2023/04/22 09:30:08;;;;;;;7.10;3.45;;;;;;;24.59;60.54;99561.31;4484670;32;31621;-85
2023/04/22 09:32:34;;;;;;;5.82;3.00;;;;;;;24.87;60.55;99563.09;4485888;32;20523;-85
2023/04/22 09:35:00;;;;;;;7.12;4.07;;;;;;;25.02;60.56;99560.81;4485701;32;20139;-84
2023/04/22 09:37:26;;;;;;;6.20;3.53;;;;;;;24.89;60.55;99568.28;4487217;32;20121;-85
2023/04/22 09:39:52;;;;;;;5.93;4.32;;;;;;;25.06;60.56;99560.38;4472272;32;20132;-85
2023/04/22 09:42:17;;;;;;;9.23;3.92;;;;;;;25.29;60.58;99549.34;4486583;31;20104;-85
2023/04/22 09:44:52;;;;;;;4.62;3.65;;;;;;;25.33;60.57;99559.59;4486647;31;20369;-85
2023/04/22 09:47:19;;;;;;;5.93;3.70;;;;;;;25.25;60.57;99556.78;4485348;32;20172;-85
2023/04/22 09:49:48;;;;;;;4.57;3.45;;;;;;;24.96;60.55;99553.38;4485691;32;20185;-85
2023/04/22 09:52:25;;;;;;;9.23;3.90;;;;;;;25.18;60.56;99549.56;4486822;31;20454;-85
2023/04/22 09:54:51;;;;;;;8.40;3.72;;;;;;;25.23;60.57;99537.47;4472859;32;20148;-85
2023/04/22 09:57:16;;;;;;;8.43;3.80;;;;;;;25.29;60.58;99536.87;4487379;31;20162;-84
2023/04/22 09:59:41;;;;;;;8.90;3.75;;;;;;;25.49;60.58;99534.94;4485091;32;20153;-84
2023/04/22 10:02:08;;;;;;;6.00;3.47;;;;;;;25.65;60.59;99529.78;4484299;32;35257;-84
2023/04/22 10:04:33;;;;;;;6.10;3.92;;;;;;;25.46;60.58;99527.25;4472187;32;20112;-85
2023/04/22 10:07:01;;;;;;;6.10;4.30;;;;;;;25.58;60.58;99534.06;4472064;32;20501;-85
2023/04/22 10:09:26;;;;;;;5.57;4.15;;;;;;;25.46;60.58;99532.56;4485160;32;20484;-85
2023/04/22 10:11:52;;;;;;;5.60;3.80;;;;;;;25.71;60.60;99525.72;4484905;32;20100;-84
2023/04/22 10:14:20;;;;;;;6.28;4.00;;;;;;;25.81;60.60;99526.50;4471854;32;20100;-85
2023/04/22 10:16:46;;;;;;;6.90;3.85;;;;;;;26.00;60.62;99525.47;4472104;32;20467;-85
2023/04/22 10:19:16;;;;;;;7.05;4.20;;;;;;;26.22;60.63;99519.69;4487399;32;20127;-85
2023/04/22 10:21:43;;;;;;;7.87;4.57;;;;;;;26.00;60.61;99515.66;4484878;32;20207;-85
2023/04/22 10:24:17;;;;;;;6.57;3.83;;;;;;;25.99;60.62;99521.16;4486026;31;20096;-85
2023/04/22 10:27:01;;;;;;;6.07;3.65;;;;;;;26.15;60.61;99515.13;4486054;31;20117;-85
2023/04/22 10:29:33;;;;;;;6.87;4.62;;;;;;;26.20;60.62;99515.50;4485074;32;20117;-85
2023/04/22 10:32:10;;;;;;;9.57;4.22;;;;;;;26.12;60.61;99515.44;4472721;32;20115;-85
2023/04/22 10:34:37;;;;;;;7.05;4.40;;;;;;;25.91;60.60;99513.06;4484960;32;20108;-85
2023/04/22 10:37:10;;;;;;;8.20;4.22;;;;;;;25.70;60.59;99505.37;4484849;32;20100;-85
2023/04/22 10:39:36;;;;;;;8.77;3.45;;;;;;;25.69;60.60;99504.53;4463568;32;20075;-85
2023/04/22 10:42:01;;;;;;;7.07;3.58;;;;;;;25.77;60.60;99505.59;4500623;31;20147;-84
2023/04/22 10:44:27;;;;;;;7.75;3.70;;;;;;;25.84;60.61;99504.03;4493322;31;20093;-85
2023/04/22 10:46:56;;;;;;;6.45;3.83;;;;;;;26.19;60.62;99505.81;4458791;32;20205;-85
2023/04/22 10:49:23;;;;;;;6.10;4.00;;;;;;;26.30;60.62;99497.56;4486430;31;20088;-85
2023/04/22 10:51:52;;;;;;;6.37;3.97;;;;;;;26.37;60.63;99505.81;4486191;32;20135;-85
2023/04/22 10:54:27;;;;;;;5.18;3.25;;;;;;;26.36;60.63;99504.97;4473502;32;20127;-85
2023/04/22 10:57:05;;;;;;;6.72;3.78;;;;;;;26.41;60.64;99502.69;4488890;31;20144;-84
2023/04/22 10:59:32;;;;;;;9.55;4.35;;;;;;;26.34;60.63;99504.31;4491255;32;20150;-85
2023/04/22 11:02:04;;;;;;;7.07;4.12;;;;;;;26.18;60.62;99504.97;4473223;32;20152;-85
2023/04/22 11:04:29;;;;;;;7.30;3.95;;;;;;;26.26;60.63;99501.53;4485727;32;22700;-85
2023/04/22 11:07:15;;;;;;;6.62;4.20;;;;;;;26.14;60.61;99500.94;4485939;32;20481;-85
2023/04/22 11:09:42;;;;;;;6.55;3.42;;;;;;;25.89;60.61;99504.41;4485889;32;20112;-85
2023/04/22 11:12:38;;;;;;;8.05;3.85;;;;;;;25.51;60.58;99510.78;4473219;32;20425;-85
2023/04/22 11:15:08;;;;;;;8.55;3.85;;;;;;;25.32;60.58;99509.12;4486984;31;20142;-85
2023/04/22 11:17:34;;;;;;;6.82;3.50;;;;;;;25.15;60.58;99504.56;4475786;32;20096;-83
2023/04/22 11:19:59;;;;;;;6.60;3.97;;;;;;;25.23;60.58;99510.81;4487240;31;20103;-85
2023/04/22 11:22:25;;;;;;;8.00;3.60;;;;;;;25.25;60.58;99500.00;4487302;31;20140;-86
2023/04/22 11:24:57;;;;;;;8.27;3.92;;;;;;;25.15;60.57;99508.06;4472800;32;20151;-85
2023/04/22 11:27:26;;;;;;;10.00;4.07;;;;;;;25.17;60.57;99498.09;4487252;31;20166;-84